Time;durP1;ratioP1;P1;durP2;ratioP2;P2;SDS_P1;SDS_P2;PMS_P1;PMS_P2;Temp;Humidity;BMP_temperature;BMP_pressure;BME280_temperature;BME280_humidity;BME280_pressure;Samples;Min_cycle;Max_cycle;Signal;HPM_P1;HPM_P2
2023/10/28 00:02:00;;;;;;;18.77;11.65;;;10.20;99.90;;;;;;4999417;28;89135;-34
2023/10/28 00:04:25;;;;;;;19.40;11.40;;;10.20;99.90;;;;;;4998170;28;89570;-34
2023/10/28 00:06:52;;;;;;;19.23;10.18;;;10.20;99.90;;;;;;4998803;28;87553;-34
2023/10/28 00:09:20;;;;;;;19.25;12.15;;;10.20;99.90;;;;;;4999120;28;90523;-34
2023/10/28 00:11:46;;;;;;;30.70;23.53;;;10.20;99.90;;;;;;4998048;28;91071;-35
2023/10/28 00:14:12;;;;;;;17.20;11.00;;;10.20;99.90;;;;;;4997563;28;89180;-33
2023/10/28 00:16:38;;;;;;;16.40;11.82;;;10.20;99.90;;;;;;4998497;28;89786;-36
2023/10/28 00:19:07;;;;;;;19.23;13.68;;;10.20;99.90;;;;;;4998085;28;90258;-35
2023/10/28 00:21:34;;;;;;;23.35;14.13;;;10.20;99.90;;;;;;4997859;28;89876;-37
2023/10/28 00:24:01;;;;;;;19.30;14.00;;;10.20;99.90;;;;;;4998505;28;89734;-35
2023/10/28 00:26:27;;;;;;;27.10;16.23;;;10.20;99.90;;;;;;4998871;28;88715;-33
2023/10/28 00:28:53;;;;;;;18.17;12.00;;;10.20;99.90;;;;;;4998646;28;90210;-35
2023/10/28 00:31:19;;;;;;;19.20;12.80;;;10.20;99.90;;;;;;4999115;28;89430;-33
2023/10/28 00:33:45;;;;;;;18.38;12.15;;;10.10;99.90;;;;;;4997803;28;89625;-35
2023/10/28 00:36:11;;;;;;;21.40;11.45;;;10.10;99.90;;;;;;4998804;28;89199;-34
2023/10/28 00:38:37;;;;;;;25.60;15.60;;;10.10;99.90;;;;;;4997593;28;89838;-36
2023/10/28 00:41:03;;;;;;;22.95;14.05;;;10.10;99.90;;;;;;4998771;28;89643;-34
2023/10/28 00:43:28;;;;;;;21.30;11.18;;;10.10;99.90;;;;;;4997718;28;89278;-34
2023/10/28 00:45:56;;;;;;;22.70;14.43;;;10.10;99.90;;;;;;4998837;28;89121;-32
2023/10/28 00:48:22;;;;;;;20.27;12.30;;;10.10;99.90;;;;;;4998379;28;89919;-31
2023/10/28 00:50:48;;;;;;;21.88;13.77;;;10.10;99.90;;;;;;4998379;28;89387;-37
2023/10/28 00:53:15;;;;;;;21.45;13.43;;;10.10;99.90;;;;;;4997879;28;90464;-33
2023/10/28 00:55:40;;;;;;;20.85;13.13;;;10.10;99.90;;;;;;4997997;28;87970;-36
2023/10/28 00:58:09;;;;;;;24.48;13.43;;;10.10;99.90;;;;;;4997787;28;90421;-33
2023/10/28 01:00:35;;;;;;;23.55;14.02;;;10.10;99.90;;;;;;4998342;28;89791;-35
2023/10/28 01:03:02;;;;;;;21.92;13.18;;;10.10;99.90;;;;;;4998401;28;89971;-34
2023/10/28 01:05:30;;;;;;;28.63;15.25;;;10.10;99.90;;;;;;4997286;28;89982;-32
2023/10/28 01:07:58;;;;;;;24.23;15.85;;;10.10;99.90;;;;;;4985650;28;88621;-34
2023/10/28 01:10:24;;;;;;;46.85;28.67;;;10.10;99.90;;;;;;4998250;28;89786;-35
2023/10/28 01:12:50;;;;;;;26.23;14.80;;;10.10;99.90;;;;;;4998083;28;89864;-34
2023/10/28 01:15:16;;;;;;;27.17;15.50;;;10.10;99.90;;;;;;4997094;28;89261;-35
2023/10/28 01:17:42;;;;;;;29.35;18.48;;;10.10;99.90;;;;;;4998625;28;90778;-34
2023/10/28 01:20:10;;;;;;;22.33;14.43;;;10.10;99.90;;;;;;4997331;28;89666;-33
2023/10/28 01:22:36;;;;;;;24.05;14.00;;;10.10;99.90;;;;;;4997409;28;89438;-37
2023/10/28 01:25:02;;;;;;;26.42;14.45;;;10.10;99.90;;;;;;4997916;28;89764;-34
2023/10/28 01:27:28;;;;;;;33.50;14.98;;;10.10;99.90;;;;;;4996866;28;90681;-36
2023/10/28 01:29:55;;;;;;;22.90;14.07;;;10.10;99.90;;;;;;4994920;28;89771;-36
2023/10/28 01:32:20;;;;;;;22.20;13.73;;;10.10;99.90;;;;;;4997265;28;89892;-33
2023/10/28 01:34:53;;;;;;;24.60;15.60;;;10.10;99.90;;;;;;4996784;28;89162;-32
2023/10/28 01:37:20;;;;;;;25.40;15.13;;;10.10;99.90;;;;;;4984689;28;89822;-34
2023/10/28 01:39:51;;;;;;;25.95;16.85;;;10.00;99.90;;;;;;4996547;28;89550;-33
2023/10/28 01:42:19;;;;;;;23.42;15.35;;;10.00;99.90;;;;;;4997544;28;88846;-34
2023/10/28 01:44:45;;;;;;;19.58;11.70;;;10.00;99.90;;;;;;4996171;28;88979;-35
2023/10/28 01:47:12;;;;;;;19.52;14.25;;;10.00;99.90;;;;;;4998183;28;90296;-36
2023/10/28 01:49:38;;;;;;;24.30;15.02;;;9.90;99.90;;;;;;4996399;28;91530;-34
2023/10/28 01:52:07;;;;;;;28.15;17.55;;;10.00;99.90;;;;;;4996777;28;89555;-33
2023/10/28 01:54:34;;;;;;;21.45;16.40;;;9.90;99.90;;;;;;4995714;28;88373;-35
2023/10/28 01:57:05;;;;;;;26.63;17.83;;;9.90;99.90;;;;;;4997911;28;90032;-35
2023/10/28 01:59:32;;;;;;;24.77;13.98;;;9.90;99.90;;;;;;4996857;28;89814;-35
2023/10/28 02:02:00;;;;;;;17.25;12.40;;;10.00;99.90;;;;;;4998208;28;89751;-32
2023/10/28 02:04:25;;;;;;;21.13;13.85;;;9.90;99.90;;;;;;4979600;28;89233;-33
2023/10/28 02:06:51;;;;;;;17.85;12.13;;;9.90;99.90;;;;;;4997193;28;90333;-32
2023/10/28 02:09:17;;;;;;;23.45;14.23;;;9.90;99.90;;;;;;4996835;28;90513;-32
2023/10/28 02:11:43;;;;;;;21.00;14.82;;;9.80;99.90;;;;;;4996720;28;88467;-36
2023/10/28 02:14:09;;;;;;;18.65;11.85;;;9.80;99.90;;;;;;4978634;28;89221;-35
2023/10/28 02:16:38;;;;;;;21.80;12.43;;;9.80;99.90;;;;;;4997051;28;90338;-33
2023/10/28 02:19:05;;;;;;;18.05;11.02;;;9.80;99.90;;;;;;4997271;28;89779;-34
2023/10/28 02:21:31;;;;;;;20.58;14.20;;;9.70;99.90;;;;;;4995499;28;89168;-32
2023/10/28 02:23:57;;;;;;;24.63;14.13;;;9.80;99.90;;;;;;4996718;28;88605;-31
2023/10/28 02:26:22;;;;;;;23.45;15.93;;;9.80;99.90;;;;;;4990865;28;89348;-36
2023/10/28 02:28:48;;;;;;;18.15;12.10;;;9.70;99.90;;;;;;4995608;28;89334;-34
2023/10/28 02:31:14;;;;;;;21.60;13.68;;;9.70;99.90;;;;;;4996545;28;89603;-32
2023/10/28 02:33:39;;;;;;;17.95;11.68;;;9.70;99.90;;;;;;4996409;28;88501;-33
2023/10/28 02:36:06;;;;;;;26.05;12.65;;;9.70;99.90;;;;;;4997071;28;89764;-36
2023/10/28 02:38:32;;;;;;;18.20;13.10;;;9.70;99.90;;;;;;5000067;28;88776;-34
2023/10/28 02:40:58;;;;;;;21.95;12.77;;;9.60;99.90;;;;;;4999631;28;90872;-34
2023/10/28 02:43:24;;;;;;;18.50;13.18;;;9.60;99.90;;;;;;5000318;28;89464;-31
2023/10/28 02:45:50;;;;;;;19.38;13.57;;;9.60;99.90;;;;;;4999882;28;89690;-33
2023/10/28 02:48:15;;;;;;;23.63;13.52;;;9.50;99.90;;;;;;5000325;28;90022;-34
2023/10/28 02:50:41;;;;;;;18.58;11.80;;;9.50;99.90;;;;;;4999441;28;89891;-35
2023/10/28 02:53:07;;;;;;;21.92;13.00;;;9.50;99.90;;;;;;4999099;28;89023;-33
2023/10/28 02:55:36;;;;;;;26.10;14.18;;;9.50;99.90;;;;;;5000500;28;90666;-38
2023/10/28 02:58:02;;;;;;;21.50;12.35;;;9.50;99.90;;;;;;4999767;28;89774;-34
2023/10/28 03:00:28;;;;;;;20.10;12.82;;;9.40;99.90;;;;;;4999604;28;89198;-34
2023/10/28 03:02:55;;;;;;;23.05;12.30;;;9.50;99.90;;;;;;4999609;28;87547;-35
2023/10/28 03:05:24;;;;;;;21.95;12.65;;;9.50;99.90;;;;;;4999438;28;91748;-32
2023/10/28 03:07:53;;;;;;;22.85;12.20;;;9.50;99.90;;;;;;4999970;28;87795;-33
2023/10/28 03:10:18;;;;;;;25.48;13.15;;;9.50;99.90;;;;;;4998495;28;89884;-35
2023/10/28 03:12:44;;;;;;;16.85;12.07;;;9.40;99.90;;;;;;4999995;28;88387;-34
2023/10/28 03:15:10;;;;;;;19.85;11.82;;;9.50;99.90;;;;;;4999817;28;89723;-34
2023/10/28 03:17:37;;;;;;;16.90;11.00;;;9.50;99.90;;;;;;4998249;28;90057;-34
2023/10/28 03:20:03;;;;;;;22.80;12.77;;;9.50;99.90;;;;;;4999585;28;89691;-33
2023/10/28 03:22:29;;;;;;;20.92;14.45;;;9.50;99.90;;;;;;4999930;28;88192;-34
2023/10/28 03:24:55;;;;;;;19.90;14.55;;;9.50;99.90;;;;;;4998740;28;90232;-33
2023/10/28 03:27:20;;;;;;;17.67;11.82;;;9.50;99.90;;;;;;5000695;28;89449;-32
2023/10/28 03:29:46;;;;;;;20.88;11.90;;;9.50;99.90;;;;;;4996064;28;89312;-32
2023/10/28 03:32:12;;;;;;;16.02;11.88;;;9.60;99.90;;;;;;4999451;28;90733;-33
2023/10/28 03:34:38;;;;;;;20.45;11.73;;;9.60;99.90;;;;;;4998778;28;90162;-32
2023/10/28 03:37:03;;;;;;;17.85;11.05;;;9.60;99.90;;;;;;4999133;28;89006;-36
2023/10/28 03:39:29;;;;;;;14.20;9.75;;;9.60;99.90;;;;;;4999250;28;89637;-35
2023/10/28 03:41:55;;;;;;;21.88;12.80;;;9.60;99.90;;;;;;4999899;28;89498;-34
2023/10/28 03:44:20;;;;;;;15.80;10.20;;;9.60;99.90;;;;;;4999999;28;90034;-33
2023/10/28 03:46:46;;;;;;;22.20;13.18;;;9.60;99.90;;;;;;4998126;28;89242;-32
2023/10/28 03:49:12;;;;;;;25.23;13.40;;;9.60;99.90;;;;;;4998535;28;89528;-35
2023/10/28 03:51:40;;;;;;;20.13;11.80;;;9.70;99.90;;;;;;4998538;28;88133;-34
2023/10/28 03:54:07;;;;;;;20.15;9.80;;;9.60;99.90;;;;;;4997648;28;90268;-34
2023/10/28 03:56:33;;;;;;;17.27;10.25;;;9.70;99.90;;;;;;4999054;28;89829;-34
2023/10/28 03:59:00;;;;;;;15.73;10.77;;;9.70;99.90;;;;;;4999308;28;91125;-36
2023/10/28 04:01:25;;;;;;;16.70;10.65;;;9.70;99.90;;;;;;4998599;28;87718;-35
2023/10/28 04:03:51;;;;;;;16.02;9.98;;;9.70;99.90;;;;;;4981628;28;90471;-34
2023/10/28 04:06:16;;;;;;;19.40;11.73;;;9.70;99.90;;;;;;4999536;28;91382;-33
2023/10/28 04:08:42;;;;;;;16.20;10.55;;;9.70;99.90;;;;;;4998484;28;90021;-32
2023/10/28 04:11:10;;;;;;;16.23;10.60;;;9.70;99.90;;;;;;4999661;28;88920;-32
2023/10/28 04:13:35;;;;;;;18.45;9.65;;;9.70;99.90;;;;;;4998752;28;89973;-37
2023/10/28 04:16:01;;;;;;;14.52;10.52;;;9.70;99.90;;;;;;4999730;28;88793;-33
2023/10/28 04:18:27;;;;;;;16.48;10.60;;;9.70;99.90;;;;;;4998018;28;90169;-32
2023/10/28 04:20:52;;;;;;;16.15;10.30;;;9.70;99.90;;;;;;4998395;28;89070;-34
2023/10/28 04:23:18;;;;;;;27.08;11.60;;;9.70;99.90;;;;;;4999205;28;90658;-31
2023/10/28 04:25:44;;;;;;;14.70;8.63;;;9.70;99.90;;;;;;4998038;28;89969;-34
2023/10/28 04:28:09;;;;;;;15.10;10.88;;;9.80;99.90;;;;;;5000015;28;89558;-32
2023/10/28 04:30:35;;;;;;;15.80;9.80;;;9.80;99.90;;;;;;4998755;28;88459;-32
2023/10/28 04:33:00;;;;;;;18.40;9.82;;;9.80;99.90;;;;;;4999009;28;90809;-35
2023/10/28 04:35:26;;;;;;;25.00;10.23;;;9.80;99.90;;;;;;4999171;28;90610;-32
2023/10/28 04:37:52;;;;;;;14.18;9.73;;;9.80;99.90;;;;;;4997867;28;89082;-34
2023/10/28 04:40:18;;;;;;;19.50;10.57;;;9.80;99.90;;;;;;4999907;28;88405;-36
2023/10/28 04:42:44;;;;;;;17.35;10.25;;;9.80;99.90;;;;;;4998056;28;89997;-34
2023/10/28 04:45:10;;;;;;;13.05;8.88;;;9.80;99.90;;;;;;4997201;28;89721;-33
2023/10/28 04:47:37;;;;;;;15.88;9.25;;;9.80;99.90;;;;;;4981711;28;89668;-32
2023/10/28 04:50:04;;;;;;;15.75;9.48;;;9.80;99.90;;;;;;4998134;28;87784;-35
2023/10/28 04:52:30;;;;;;;16.70;10.68;;;9.80;99.90;;;;;;4999389;28;90292;-32
2023/10/28 04:54:56;;;;;;;15.95;9.70;;;9.90;99.90;;;;;;4997570;28;89065;-34
2023/10/28 04:57:22;;;;;;;13.88;9.23;;;9.90;99.90;;;;;;4981087;28;89654;-32
2023/10/28 04:59:49;;;;;;;15.95;9.88;;;9.80;99.90;;;;;;4999524;28;88559;-33
2023/10/28 05:02:15;;;;;;;16.40;10.48;;;9.90;99.90;;;;;;4998929;28;89246;-32
2023/10/28 05:04:41;;;;;;;14.02;8.95;;;9.90;99.90;;;;;;4997885;28;89419;-32
2023/10/28 05:07:07;;;;;;;13.25;8.60;;;9.90;99.90;;;;;;4999052;28;90952;-35
2023/10/28 05:09:32;;;;;;;16.73;10.07;;;9.90;99.90;;;;;;4999645;28;89649;-36
2023/10/28 05:11:58;;;;;;;16.23;8.27;;;9.90;99.90;;;;;;4997244;28;89897;-32
2023/10/28 05:14:27;;;;;;;14.50;9.05;;;9.90;99.90;;;;;;4978615;28;89719;-34
2023/10/28 05:16:55;;;;;;;;;;;9.90;99.90;;;;;;4998505;28;89125;-32
2023/10/28 05:19:22;;;;;;;15.32;8.98;;;9.90;99.90;;;;;;5000560;28;88600;-34
2023/10/28 05:21:48;;;;;;;12.23;8.50;;;9.90;99.90;;;;;;4998004;28;90336;-33
2023/10/28 05:24:15;;;;;;;23.85;11.07;;;9.90;99.90;;;;;;4999280;28;90694;-36
2023/10/28 05:26:40;;;;;;;17.35;10.13;;;9.90;99.90;;;;;;4997463;28;88980;-34
2023/10/28 05:29:06;;;;;;;20.90;11.15;;;10.00;99.90;;;;;;4999341;28;90061;-32
2023/10/28 05:31:32;;;;;;;10.73;7.28;;;9.90;99.90;;;;;;4997694;28;90084;-31
2023/10/28 05:33:58;;;;;;;17.27;9.20;;;10.00;99.90;;;;;;4997670;28;88262;-33
2023/10/28 05:36:23;;;;;;;15.40;10.73;;;10.00;99.90;;;;;;4998948;28;89028;-37
2023/10/28 05:38:49;;;;;;;16.63;8.88;;;10.00;99.90;;;;;;4997625;28;89036;-36
2023/10/28 05:41:15;;;;;;;14.88;9.20;;;10.00;99.90;;;;;;4998773;28;90218;-33
2023/10/28 05:43:41;;;;;;;10.75;7.57;;;10.00;99.90;;;;;;4998321;28;90039;-34
2023/10/28 05:46:06;;;;;;;18.52;10.30;;;10.00;99.90;;;;;;4997828;28;89346;-33
2023/10/28 05:48:32;;;;;;;12.63;9.55;;;10.00;99.90;;;;;;4998648;28;89688;-33
2023/10/28 05:50:59;;;;;;;12.45;8.55;;;10.00;99.90;;;;;;4997743;28;90168;-31
2023/10/28 05:53:24;;;;;;;14.80;8.25;;;10.10;99.90;;;;;;5047828;22;89922;-33
2023/10/28 05:55:52;;;;;;;12.60;7.30;;;10.00;99.90;;;;;;4990278;28;90229;-31
2023/10/28 05:58:17;;;;;;;16.88;7.65;;;10.00;99.90;;;;;;4978478;28;89194;-33
2023/10/28 06:00:44;;;;;;;10.63;7.30;;;10.10;99.90;;;;;;4978153;28;90227;-36
2023/10/28 06:03:09;;;;;;;11.57;6.78;;;10.10;99.90;;;;;;4978755;28;89540;-33
2023/10/28 06:05:35;;;;;;;10.65;6.63;;;10.10;99.90;;;;;;4977853;28;89632;-35
2023/10/28 06:08:01;;;;;;;7.65;6.82;;;10.10;99.90;;;;;;4978657;28;88784;-33
2023/10/28 06:10:26;;;;;;;15.05;7.63;;;10.10;99.90;;;;;;4991120;28;89734;-32
2023/10/28 06:12:52;;;;;;;12.52;7.40;;;10.10;99.90;;;;;;4993336;28;90614;-34
2023/10/28 06:15:18;;;;;;;10.23;7.25;;;10.10;99.90;;;;;;4981564;28;89665;-35
2023/10/28 06:17:45;;;;;;;11.02;7.00;;;10.10;99.90;;;;;;4982269;28;88997;-37
2023/10/28 06:20:11;;;;;;;10.77;6.78;;;10.10;99.90;;;;;;4981175;28;90262;-30
2023/10/28 06:22:37;;;;;;;10.38;6.45;;;10.10;99.90;;;;;;4981042;28;89916;-35
2023/10/28 06:25:04;;;;;;;8.27;5.65;;;10.10;99.90;;;;;;4981299;28;90301;-35
2023/10/28 06:27:31;;;;;;;8.40;6.07;;;10.10;99.90;;;;;;4982062;28;90195;-36
2023/10/28 06:29:57;;;;;;;10.02;5.65;;;10.10;99.90;;;;;;4984551;28;90629;-37
2023/10/28 06:32:22;;;;;;;13.50;7.30;;;10.10;99.90;;;;;;4981277;28;89254;-36
2023/10/28 06:34:49;;;;;;;9.75;6.45;;;10.10;99.90;;;;;;4980991;28;89531;-36
2023/10/28 06:37:15;;;;;;;8.05;6.03;;;10.10;99.90;;;;;;4980915;28;89748;-34
2023/10/28 06:39:40;;;;;;;7.88;5.88;;;10.10;99.90;;;;;;4981325;28;90741;-33
2023/10/28 06:42:06;;;;;;;10.25;6.13;;;10.20;99.90;;;;;;4988581;28;90169;-34
2023/10/28 06:44:32;;;;;;;7.10;5.32;;;10.20;99.90;;;;;;4984178;28;89522;-36
2023/10/28 06:46:58;;;;;;;7.18;6.00;;;10.10;99.90;;;;;;4992327;28;88569;-32
2023/10/28 06:49:24;;;;;;;7.55;5.50;;;10.20;99.90;;;;;;4975252;28;90235;-32
2023/10/28 06:51:50;;;;;;;10.23;5.03;;;10.10;99.90;;;;;;4983343;28;90285;-36
2023/10/28 06:54:16;;;;;;;11.43;6.47;;;10.10;99.90;;;;;;4983292;28;89734;-34
2023/10/28 06:56:41;;;;;;;7.63;4.72;;;10.20;99.90;;;;;;4983041;28;89620;-36
2023/10/28 06:59:07;;;;;;;6.75;4.75;;;10.10;99.90;;;;;;4980360;28;90300;-32
2023/10/28 07:01:34;;;;;;;6.22;5.43;;;10.20;99.90;;;;;;4979770;28;89368;-38
2023/10/28 07:04:01;;;;;;;8.45;4.95;;;10.20;99.90;;;;;;4962592;28;89961;-35
2023/10/28 07:06:26;;;;;;;7.28;4.60;;;10.10;99.90;;;;;;4980698;28;89599;-34
2023/10/28 07:08:52;;;;;;;11.77;5.35;;;10.20;99.90;;;;;;4986232;28;90346;-33
2023/10/28 07:11:18;;;;;;;12.95;5.78;;;10.20;99.90;;;;;;4987531;28;90499;-32
2023/10/28 07:13:44;;;;;;;7.60;4.82;;;10.10;99.90;;;;;;4980172;28;90174;-34
2023/10/28 07:16:10;;;;;;;7.70;4.82;;;10.10;99.90;;;;;;4994356;28;88825;-35
2023/10/28 07:18:36;;;;;;;6.97;4.45;;;10.10;99.90;;;;;;4967466;28;90210;-33
2023/10/28 07:21:02;;;;;;;7.57;5.40;;;10.10;99.90;;;;;;4979719;28;90379;-35
2023/10/28 07:23:28;;;;;;;10.55;4.72;;;10.20;99.90;;;;;;4987615;28;89516;-34
2023/10/28 07:25:54;;;;;;;5.70;4.43;;;10.10;99.90;;;;;;4986418;28;88340;-34
2023/10/28 07:28:20;;;;;;;7.78;3.95;;;10.20;99.90;;;;;;4993646;28;89820;-35
2023/10/28 07:30:53;;;;;;;7.60;3.95;;;10.10;99.90;;;;;;4993423;28;89413;-34
2023/10/28 07:33:19;;;;;;;7.38;5.18;;;10.20;99.90;;;;;;4979111;28;90611;-36
2023/10/28 07:35:47;;;;;;;11.68;5.05;;;10.20;99.90;;;;;;4979994;28;90086;-32
2023/10/28 07:38:13;;;;;;;4.57;3.47;;;10.20;99.90;;;;;;4979843;28;89752;-34
2023/10/28 07:40:41;;;;;;;5.95;3.80;;;10.10;99.90;;;;;;4986654;28;89491;-38
2023/10/28 07:43:07;;;;;;;4.47;3.92;;;10.20;99.90;;;;;;4980523;28;90076;-34
2023/10/28 07:45:33;;;;;;;5.35;3.75;;;10.20;99.90;;;;;;4983616;28;89189;-37
2023/10/28 07:47:59;;;;;;;7.18;4.45;;;10.20;99.90;;;;;;4976375;28;90626;-37
2023/10/28 07:50:25;;;;;;;4.32;3.28;;;10.30;99.90;;;;;;4978032;28;89908;-34
2023/10/28 07:52:50;;;;;;;5.95;3.70;;;10.30;99.90;;;;;;4976584;28;89151;-35
2023/10/28 07:55:16;;;;;;;6.10;3.83;;;10.30;99.90;;;;;;4976953;28;88194;-34
2023/10/28 07:57:43;;;;;;;9.75;3.75;;;10.30;99.90;;;;;;4975024;28;91876;-35
2023/10/28 08:00:11;;;;;;;6.60;4.45;;;10.30;99.90;;;;;;4980154;28;88855;-32
2023/10/28 08:02:37;;;;;;;4.27;3.53;;;10.40;99.90;;;;;;4982290;28;90380;-36
2023/10/28 08:05:04;;;;;;;4.10;3.55;;;10.40;99.90;;;;;;4976952;28;88437;-34
2023/10/28 08:07:29;;;;;;;5.70;3.70;;;10.40;99.90;;;;;;4975859;28;91386;-36
2023/10/28 08:09:56;;;;;;;5.63;3.15;;;10.40;99.90;;;;;;4988981;28;89629;-32
2023/10/28 08:12:22;;;;;;;3.15;2.70;;;10.50;99.90;;;;;;4976722;28;89990;-34
2023/10/28 08:14:48;;;;;;;3.95;2.80;;;10.50;99.90;;;;;;4978773;28;88574;-35
2023/10/28 08:17:13;;;;;;;4.45;3.15;;;10.50;99.90;;;;;;4988491;28;90289;-34
2023/10/28 08:19:40;;;;;;;4.05;3.65;;;10.50;99.90;;;;;;4976087;28;89245;-33
2023/10/28 08:22:06;;;;;;;5.88;2.70;;;10.50;99.90;;;;;;4976419;28;89500;-33
2023/10/28 08:24:31;;;;;;;3.42;3.13;;;10.60;99.90;;;;;;4977161;28;88128;-34
2023/10/28 08:26:57;;;;;;;5.95;3.35;;;10.60;99.90;;;;;;4975383;28;89100;-34
2023/10/28 08:29:24;;;;;;;6.85;3.28;;;10.60;99.90;;;;;;4982949;28;89821;-33
2023/10/28 08:31:50;;;;;;;3.97;3.03;;;10.70;99.90;;;;;;4982232;28;89060;-36
2023/10/28 08:34:16;;;;;;;5.20;3.70;;;10.70;99.90;;;;;;4985777;28;88096;-34
2023/10/28 08:36:42;;;;;;;6.22;4.30;;;10.70;99.90;;;;;;4975438;28;90994;-37
2023/10/28 08:39:07;;;;;;;3.42;2.95;;;10.80;99.90;;;;;;4976406;28;89998;-31
2023/10/28 08:41:34;;;;;;;5.40;3.80;;;10.80;99.90;;;;;;4975472;28;89331;-36
2023/10/28 08:44:04;;;;;;;4.25;3.53;;;10.80;99.90;;;;;;4977349;28;88494;-35
2023/10/28 08:46:31;;;;;;;7.70;5.10;;;10.80;99.90;;;;;;4974881;28;90220;-33
2023/10/28 08:48:59;;;;;;;5.97;4.35;;;10.80;99.90;;;;;;4974565;28;89830;-36
2023/10/28 08:51:28;;;;;;;11.43;6.57;;;10.80;99.90;;;;;;4973511;28;90061;-36
2023/10/28 08:53:56;;;;;;;5.50;3.88;;;10.80;99.90;;;;;;4976903;28;89762;-33
2023/10/28 08:56:25;;;;;;;8.05;5.13;;;10.90;99.90;;;;;;4975322;28;90304;-37
2023/10/28 08:58:52;;;;;;;9.40;5.10;;;10.90;99.90;;;;;;4975518;28;89529;-34
2023/10/28 09:01:22;;;;;;;10.43;4.13;;;11.00;99.90;;;;;;4974805;28;89725;-34
2023/10/28 09:03:56;;;;;;;6.95;5.50;;;11.00;99.90;;;;;;4976249;28;89157;-32
2023/10/28 09:06:22;;;;;;;4.90;4.20;;;11.00;99.90;;;;;;4969348;28;90387;-35
2023/10/28 09:08:49;;;;;;;5.93;4.72;;;11.10;99.90;;;;;;4987460;28;88646;-31
2023/10/28 09:11:15;;;;;;;7.10;3.83;;;11.10;99.90;;;;;;4974614;28;90033;-34
2023/10/28 09:13:45;;;;;;;4.07;3.67;;;11.10;99.90;;;;;;4975647;28;89135;-37
2023/10/28 09:16:11;;;;;;;6.75;4.13;;;11.20;99.90;;;;;;4975624;28;89900;-33
2023/10/28 09:18:42;;;;;;;4.72;3.75;;;11.20;99.90;;;;;;4975800;28;90579;-36
2023/10/28 09:21:09;;;;;;;5.75;3.95;;;11.30;99.90;;;;;;4976633;28;89970;-33
2023/10/28 09:23:39;;;;;;;6.00;3.35;;;11.30;99.90;;;;;;4976408;28;88828;-36
2023/10/28 09:26:05;;;;;;;7.15;4.32;;;11.30;99.90;;;;;;4975728;28;91395;-35
2023/10/28 09:28:34;;;;;;;10.30;3.97;;;11.30;99.90;;;;;;4976798;28;89489;-32
2023/10/28 09:31:00;;;;;;;4.22;3.83;;;11.30;99.90;;;;;;4995473;28;88975;-33
2023/10/28 09:33:27;;;;;;;4.57;3.92;;;11.30;99.90;;;;;;4981577;28;91252;-34
2023/10/28 09:35:56;;;;;;;8.63;4.30;;;11.30;99.90;;;;;;4985949;28;91551;-35
2023/10/28 09:38:23;;;;;;;6.22;3.95;;;11.30;99.90;;;;;;4988268;28;89450;-34
2023/10/28 09:40:48;;;;;;;8.52;3.53;;;11.30;99.90;;;;;;4975376;28;89465;-36
2023/10/28 09:43:15;;;;;;;9.10;4.25;;;11.30;99.90;;;;;;4975759;28;89538;-32
2023/10/28 09:45:45;;;;;;;7.38;4.40;;;11.30;99.90;;;;;;4986333;28;90307;-33
2023/10/28 09:48:15;;;;;;;7.05;4.20;;;11.30;99.90;;;;;;4980329;28;90669;-34
2023/10/28 09:50:48;;;;;;;4.50;3.63;;;11.30;99.90;;;;;;4979445;28;89861;-33
2023/10/28 09:53:16;;;;;;;4.60;3.58;;;11.30;99.90;;;;;;4991561;28;89851;-34
2023/10/28 09:55:43;;;;;;;6.10;4.57;;;11.30;99.90;;;;;;4979375;28;90344;-33
2023/10/28 09:58:11;;;;;;;4.97;4.47;;;11.30;99.90;;;;;;4978146;28;89671;-33
2023/10/28 10:00:37;;;;;;;7.40;4.37;;;11.40;99.90;;;;;;4978615;28;90654;-37
2023/10/28 10:03:32;;;;;;;10.70;5.45;;;11.40;99.90;;;;;;4973450;28;89363;-34
2023/10/28 10:05:58;;;;;;;6.13;4.07;;;11.40;99.90;;;;;;4978399;28;90871;-35
2023/10/28 10:08:24;;;;;;;13.68;4.13;;;11.40;99.90;;;;;;4977531;28;89933;-36
2023/10/28 10:10:52;;;;;;;3.95;3.58;;;11.50;99.90;;;;;;4989230;28;89858;-35
2023/10/28 10:13:17;;;;;;;8.55;4.22;;;11.40;99.90;;;;;;4979425;28;89162;-35
2023/10/28 10:16:03;;;;;;;8.38;4.53;;;11.40;99.90;;;;;;4980006;28;90505;-34
2023/10/28 10:18:39;;;;;;;5.07;3.28;;;11.40;99.90;;;;;;4959507;28;90478;-33
2023/10/28 10:21:09;;;;;;;7.65;3.83;;;11.40;99.90;;;;;;4979254;28;89288;-34
2023/10/28 10:23:49;;;;;;;7.13;4.05;;;11.40;99.90;;;;;;4979797;28;89463;-35
2023/10/28 10:26:30;;;;;;;10.30;4.72;;;11.40;99.90;;;;;;4978147;28;90769;-35
2023/10/28 10:28:58;;;;;;;6.20;3.92;;;11.40;99.90;;;;;;4977828;28;89727;-32
2023/10/28 10:31:31;;;;;;;5.40;3.63;;;11.50;99.90;;;;;;4979322;28;89059;-34
2023/10/28 10:34:08;;;;;;;5.03;3.67;;;11.50;99.90;;;;;;4977436;28;89694;-36
2023/10/28 10:36:41;;;;;;;5.78;4.90;;;11.50;99.90;;;;;;4979178;28;89938;-37
2023/10/28 10:39:14;;;;;;;5.65;3.78;;;11.50;99.90;;;;;;4978768;28;89862;-36
2023/10/28 10:41:41;;;;;;;6.88;4.85;;;11.60;99.90;;;;;;4982440;28;89856;-34
2023/10/28 10:44:33;;;;;;;7.78;4.72;;;11.60;99.90;;;;;;4979849;28;88759;-34
2023/10/28 10:46:59;;;;;;;8.55;6.38;;;11.70;99.90;;;;;;4978041;28;88424;-32
2023/10/28 10:49:26;;;;;;;9.18;4.68;;;11.60;99.90;;;;;;4979764;28;89828;-33
2023/10/28 10:51:52;;;;;;;6.57;5.18;;;11.70;99.90;;;;;;4978164;28;89406;-34
2023/10/28 10:54:18;;;;;;;6.75;4.70;;;11.70;99.90;;;;;;4978227;28;88247;-34
2023/10/28 10:56:45;;;;;;;6.50;4.25;;;11.70;99.90;;;;;;4978752;28;89450;-32
2023/10/28 10:59:11;;;;;;;7.15;4.88;;;11.70;99.90;;;;;;4978661;28;90054;-37
2023/10/28 11:01:38;;;;;;;10.93;5.70;;;11.70;99.90;;;;;;4977567;28;90205;-35
2023/10/28 11:04:05;;;;;;;10.60;4.90;;;11.70;99.90;;;;;;4978378;28;88560;-34
2023/10/28 11:06:30;;;;;;;6.45;4.40;;;11.80;99.90;;;;;;4978385;28;90820;-36
2023/10/28 11:08:57;;;;;;;6.78;4.70;;;11.80;99.90;;;;;;4984024;28;91154;-34
2023/10/28 11:11:22;;;;;;;6.50;4.63;;;11.80;99.90;;;;;;4983924;28;89470;-31
2023/10/28 11:13:48;;;;;;;5.85;4.93;;;11.80;99.90;;;;;;4979172;28;88888;-34
2023/10/28 11:16:22;;;;;;;5.70;4.45;;;11.80;99.90;;;;;;4976884;28;91430;-36
2023/10/28 11:18:48;;;;;;;5.32;3.70;;;11.80;99.90;;;;;;4978862;28;89880;-33
2023/10/28 11:21:15;;;;;;;5.63;5.13;;;11.90;99.90;;;;;;4977583;28;89327;-34
2023/10/28 11:23:41;;;;;;;7.00;4.68;;;11.90;99.90;;;;;;4977421;28;89089;-32
2023/10/28 11:26:07;;;;;;;7.38;4.65;;;11.90;99.90;;;;;;4979010;28;89852;-35
2023/10/28 11:28:33;;;;;;;7.30;4.35;;;12.00;99.90;;;;;;4979391;28;89656;-33
2023/10/28 11:30:59;;;;;;;7.78;4.55;;;12.00;99.90;;;;;;4989434;28;88468;-36
2023/10/28 11:33:26;;;;;;;5.00;4.00;;;12.00;99.90;;;;;;4991560;28;90532;-32
2023/10/28 11:35:52;;;;;;;8.60;4.93;;;12.00;99.90;;;;;;4977827;28;90456;-34
2023/10/28 11:38:18;;;;;;;8.00;4.15;;;12.00;99.90;;;;;;4977469;28;89839;-36
2023/10/28 11:40:43;;;;;;;9.73;5.13;;;12.00;99.90;;;;;;4976888;28;91223;-34
2023/10/28 11:43:09;;;;;;;5.75;4.30;;;12.00;99.90;;;;;;4977855;28;88612;-36
2023/10/28 11:45:35;;;;;;;6.90;4.65;;;12.00;99.90;;;;;;4977527;28;90774;-33
2023/10/28 11:48:01;;;;;;;6.22;4.55;;;12.10;99.90;;;;;;4976913;28;89451;-34
2023/10/28 11:50:26;;;;;;;5.50;4.55;;;12.10;99.90;;;;;;4978364;28;89358;-35
2023/10/28 11:52:52;;;;;;;5.40;3.85;;;12.10;99.90;;;;;;4977844;28;89977;-34
2023/10/28 11:55:17;;;;;;;7.28;5.60;;;12.20;99.90;;;;;;4974162;28;89705;-34
2023/10/28 11:57:43;;;;;;;4.78;4.30;;;12.20;99.90;;;;;;4976989;28;89504;-33
2023/10/28 12:00:11;;;;;;;6.85;4.30;;;12.30;99.90;;;;;;4976744;28;88708;-35
2023/10/28 12:02:36;;;;;;;7.73;4.10;;;12.30;99.90;;;;;;4975896;28;89189;-35
2023/10/28 12:05:03;;;;;;;3.60;3.30;;;12.30;99.90;;;;;;4976440;28;90014;-33
2023/10/28 12:07:29;;;;;;;5.35;3.22;;;12.40;99.90;;;;;;4975612;28;89830;-33
2023/10/28 12:09:54;;;;;;;8.73;3.55;;;12.50;99.90;;;;;;4963751;28;89683;-33
2023/10/28 12:12:20;;;;;;;10.25;3.45;;;12.50;99.90;;;;;;4982951;28;89506;-33
2023/10/28 12:14:46;;;;;;;4.85;3.45;;;12.50;99.90;;;;;;4976335;28;90334;-36
2023/10/28 12:17:11;;;;;;;6.13;4.90;;;12.60;99.90;;;;;;4975593;28;90084;-33
2023/10/28 12:19:39;;;;;;;4.45;2.88;;;12.60;99.90;;;;;;4976633;28;88893;-35
2023/10/28 12:22:05;;;;;;;2.90;2.63;;;12.60;99.90;;;;;;4982003;28;88604;-36
2023/10/28 12:24:33;;;;;;;5.45;3.30;;;12.60;99.90;;;;;;4978672;28;90183;-34
2023/10/28 12:26:58;;;;;;;11.07;3.13;;;12.60;99.90;;;;;;4983861;28;89108;-35
2023/10/28 12:29:25;;;;;;;6.78;3.05;;;12.60;99.90;;;;;;4976668;28;90574;-32
2023/10/28 12:31:51;;;;;;;6.60;4.97;;;12.60;99.90;;;;;;4975128;28;89098;-35
2023/10/28 12:34:17;;;;;;;10.25;4.47;;;12.60;99.90;;;;;;4976516;28;90222;-34
2023/10/28 12:36:46;;;;;;;6.43;3.20;;;12.60;99.90;;;;;;4978518;28;89388;-36
2023/10/28 12:39:16;;;;;;;3.72;3.42;;;12.60;99.90;;;;;;4975556;28;89322;-36